createdAt,value
2024-05-09T00:00:06.668Z,25.016292600000003
2024-05-09T00:01:08.885Z,25.000149800000003
2024-05-09T00:03:12.529Z,25.017908400000003
2024-05-09T00:04:12.450Z,24.961405600000003
2024-05-09T00:06:09.004Z,24.9129752
2024-05-09T00:08:10.934Z,24.8823029
2024-05-09T00:09:19.551Z,24.8435596
2024-05-09T00:11:12.557Z,24.7305543
2024-05-09T00:12:13.092Z,24.743468200000002
2024-05-09T00:13:15.345Z,24.719252900000004
2024-05-09T00:15:13.794Z,24.724096500000005
2024-05-09T00:16:16.785Z,24.711180500000005
2024-05-09T00:18:16.560Z,24.620775000000002
2024-05-09T00:20:24.577Z,24.7047191
2024-05-09T00:22:22.842Z,24.851624299999997
2024-05-09T00:24:18.182Z,24.956557599999996
2024-05-09T00:25:20.975Z,24.964628400000002
2024-05-09T00:26:22.363Z,25.0469624
2024-05-09T00:28:22.100Z,25.2067861
2024-05-09T00:30:27.781Z,25.198714199999998
2024-05-09T00:31:21.939Z,25.1325267
2024-05-09T00:32:22.582Z,25.1179986
2024-05-09T00:33:23.258Z,25.064725699999997
2024-05-09T00:34:23.664Z,24.9614058
2024-05-09T00:35:24.174Z,24.9307338
2024-05-09T00:36:24.632Z,24.879072800000003
2024-05-09T00:37:25.178Z,24.853241700000005
2024-05-09T00:38:25.780Z,24.8726139
2024-05-09T00:39:26.262Z,24.8467858
2024-05-09T00:40:30.943Z,24.814500199999998
2024-05-09T00:41:27.391Z,24.8516299
2024-05-09T00:42:27.898Z,24.825800299999994
2024-05-09T00:43:28.433Z,24.862930399999996
2024-05-09T00:44:29.011Z,24.882303
2024-05-09T00:45:29.530Z,24.888760400000002
2024-05-09T00:46:30.789Z,24.8823035
2024-05-09T00:48:31.220Z,24.845173200000005
2024-05-09T00:49:31.741Z,24.9145907
2024-05-09T00:50:35.433Z,24.953335900000003
2024-05-09T00:51:32.771Z,24.925892200000003
2024-05-09T00:52:33.318Z,24.9000627
2024-05-09T00:53:33.959Z,24.8855338
2024-05-09T00:54:34.397Z,24.8806906
2024-05-09T00:55:34.952Z,24.8661604
2024-05-09T00:56:35.510Z,24.8403312
2024-05-09T00:57:36.030Z,24.853247099999997
2024-05-09T00:58:36.580Z,24.890376800000002
2024-05-09T00:59:37.146Z,24.867773399999997
2024-05-09T01:00:39.289Z,24.8726138
2024-05-09T01:01:38.238Z,24.891985499999997
2024-05-09T01:02:38.798Z,24.904899699999998
2024-05-09T01:03:39.436Z,24.9371868
2024-05-09T01:04:39.907Z,24.9581725
2024-05-09T01:05:40.836Z,24.9484871
2024-05-09T01:06:40.920Z,25.008218000000006
2024-05-09T01:07:41.466Z,25.046961000000003
2024-05-09T01:08:42.041Z,25.087320400000003
2024-05-09T01:09:42.544Z,25.113151700000003
2024-05-09T01:10:44.913Z,25.0808661
2024-05-09T01:11:43.699Z,25.064723100000002
2024-05-09T01:12:44.165Z,25.1115382
2024-05-09T01:13:44.758Z,25.122836999999997
2024-05-09T01:14:45.263Z,25.1890267
2024-05-09T01:15:45.817Z,25.2842738
2024-05-09T01:16:53.770Z,25.327863000000004
2024-05-09T01:18:54.203Z,25.2778159
2024-05-09T01:19:59.219Z,25.2471418
2024-05-09T01:21:49.618Z,25.3359286
2024-05-09T01:22:51.212Z,25.3052573
2024-05-09T01:23:56.452Z,25.2390701
2024-05-09T01:25:54.899Z,25.1744957
2024-05-09T01:28:16.131Z,25.1857954
2024-05-09T01:29:24.402Z,25.1486672
2024-05-09T01:30:53.943Z,25.222932300000004
2024-05-09T01:31:54.570Z,25.2245472
2024-05-09T01:32:55.144Z,25.2261615
2024-05-09T01:33:55.683Z,25.295577199999997
2024-05-09T01:34:56.193Z,25.2971911
2024-05-09T01:35:56.658Z,25.2229308
2024-05-09T01:37:03.270Z,25.1405971
2024-05-09T01:38:58.278Z,25.105082200000002
2024-05-09T01:39:58.820Z,25.0953963
2024-05-09T01:40:59.840Z,25.003376900000003
2024-05-09T01:41:59.908Z,24.91943
2024-05-09T01:43:00.455Z,24.9049009
2024-05-09T01:44:01.050Z,24.859699400000004
2024-05-09T01:45:01.548Z,24.840327900000005
2024-05-09T01:46:02.916Z,24.817727100000006
2024-05-09T01:48:03.704Z,24.866156100000005
2024-05-09T01:49:03.784Z,24.858084700000006
2024-05-09T01:50:05.146Z,24.859699
2024-05-09T01:51:05.045Z,24.8903703
2024-05-09T01:52:05.386Z,24.890370400000002
2024-05-09T01:53:05.999Z,24.9097437
2024-05-09T01:54:06.430Z,24.945259900000003
2024-05-09T01:55:07.100Z,24.911359700000002
2024-05-09T01:56:08.545Z,24.922659900000003
2024-05-09T01:58:08.658Z,25.038896900000005
2024-05-09T01:59:09.209Z,25.088941
2024-05-09T02:00:10.368Z,25.1551291
2024-05-09T02:01:10.230Z,25.177729600000003
2024-05-09T02:02:11.426Z,25.201944899999997
2024-05-09T02:03:13.125Z,25.182572900000004
2024-05-09T02:04:11.999Z,25.2197019
2024-05-09T02:05:12.501Z,25.2875036
2024-05-09T02:06:13.034Z,25.331091400000002
2024-05-09T02:07:13.482Z,25.2390715
2024-05-09T02:08:14.111Z,25.208396999999998
2024-05-09T02:09:14.565Z,25.192254600000002
2024-05-09T02:10:16.602Z,25.1761097
2024-05-09T02:11:15.714Z,25.171266300000003
2024-05-09T02:14:17.384Z,25.1712652
2024-05-09T02:15:17.821Z,25.187407099999998
2024-05-09T02:16:18.356Z,25.1631919
2024-05-09T02:17:19.975Z,25.1567339
2024-05-09T02:19:20.113Z,25.2100063
2024-05-09T02:20:27.355Z,25.197091500000003
2024-05-09T02:21:21.190Z,25.177718300000002
2024-05-09T02:22:21.615Z,25.147046400000004
2024-05-09T02:23:22.243Z,25.124446500000005
2024-05-09T02:24:22.686Z,25.150275
2024-05-09T02:25:23.253Z,25.1389746
2024-05-09T02:26:23.814Z,25.1244461
2024-05-09T02:27:24.327Z,25.1050742
2024-05-09T02:28:24.870Z,25.046958100000005
2024-05-09T02:29:25.608Z,25.0308148
2024-05-09T02:30:30.471Z,25.064717300000005
2024-05-09T02:31:29.282Z,25.117992200000003
2024-05-09T02:33:27.891Z,25.079249200000003
2024-05-09T02:35:28.763Z,24.998533100000003
2024-05-09T02:36:29.213Z,25.0066045
2024-05-09T02:37:29.765Z,25.037275799999996
2024-05-09T02:38:30.407Z,24.9985328
2024-05-09T02:39:30.846Z,25.0195194
2024-05-09T02:40:35.212Z,24.982390200000005
2024-05-09T02:41:32.023Z,24.874228400000003
2024-05-09T02:42:32.476Z,24.7789809
2024-05-09T02:43:33.037Z,24.791895700000005
2024-05-09T02:44:33.596Z,24.870997700000004
2024-05-09T02:45:34.103Z,24.956557200000002
2024-05-09T02:46:34.642Z,24.9226574
2024-05-09T02:47:35.342Z,24.9484885
2024-05-09T02:48:35.788Z,25.042122
2024-05-09T02:49:37.034Z,25.087322800000003
2024-05-09T02:51:37.394Z,25.2035554
2024-05-09T02:52:37.886Z,25.2616714
2024-05-09T02:53:38.526Z,25.230998300000003
2024-05-09T02:54:39.127Z,25.189026300000002
2024-05-09T02:55:39.532Z,25.1841844
2024-05-09T02:56:40.127Z,25.1664265
2024-05-09T02:57:40.620Z,25.098623999999997
2024-05-09T02:58:41.175Z,25.0453474
2024-05-09T02:59:41.697Z,25.0405036
2024-05-09T03:00:42.917Z,25.071177
2024-05-09T03:01:42.917Z,25.046962100000002
2024-05-09T03:02:43.770Z,25.034047300000005
2024-05-09T03:03:44.016Z,24.9872313
2024-05-09T03:04:44.502Z,24.9339575
2024-05-09T03:05:45.359Z,24.880684499999997
2024-05-09T03:06:45.508Z,24.9242708
2024-05-09T03:07:46.117Z,24.933956700000003
2024-05-09T03:08:46.604Z,24.912971500000005
2024-05-09T03:09:47.185Z,24.896828700000004
2024-05-09T03:10:47.726Z,24.8354833
2024-05-09T03:11:48.273Z,24.803196099999997
2024-05-09T03:12:48.754Z,24.804810999999994
2024-05-09T03:13:49.344Z,24.875841199999996
2024-05-09T03:14:49.843Z,24.966244200000002
2024-05-09T03:15:50.381Z,24.953329000000004
2024-05-09T03:16:50.981Z,24.933957200000002
2024-05-09T03:17:51.564Z,24.959785599999996
2024-05-09T03:18:52.049Z,24.983999899999997
2024-05-09T03:19:52.710Z,24.9743142
2024-05-09T03:20:53.165Z,24.967856899999994
2024-05-09T03:21:53.629Z,24.963014199999996
2024-05-09T03:23:54.745Z,24.922655900000002
2024-05-09T03:24:58.910Z,24.898440900000004
2024-05-09T03:26:56.363Z,24.898441400000003
2024-05-09T03:27:56.906Z,24.9129704
2024-05-09T03:28:57.442Z,24.9032847
2024-05-09T03:29:57.990Z,24.877455999999995
2024-05-09T03:30:58.525Z,24.870998899999996
2024-05-09T03:31:59.079Z,24.8839138
2024-05-09T03:32:59.738Z,24.900056400000004
2024-05-09T03:34:00.318Z,24.908127600000004
2024-05-09T03:35:01.322Z,24.854854900000003
2024-05-09T03:37:01.800Z,24.853239900000005
2024-05-09T03:38:02.419Z,24.853239900000005
2024-05-09T03:39:02.852Z,24.872611499999998
2024-05-09T03:40:04.211Z,24.877454399999998
2024-05-09T03:41:03.984Z,24.890368700000003
2024-05-09T03:42:04.484Z,24.921039999999998
2024-05-09T03:43:05.369Z,24.935568600000003
2024-05-09T03:44:11.400Z,24.938798
2024-05-09T03:46:06.660Z,25.003371500000004
2024-05-09T03:47:07.320Z,24.979157200000003
2024-05-09T03:48:11.822Z,24.9242705
2024-05-09T03:50:12.203Z,24.890370400000002
2024-05-09T03:51:09.548Z,24.8613133
2024-05-09T03:52:09.916Z,24.853241899999997
2024-05-09T03:53:10.677Z,24.8597007
2024-05-09T03:54:11.013Z,24.871000199999997
2024-05-09T03:55:11.546Z,24.8435565
2024-05-09T03:56:12.101Z,24.930733600000003
2024-05-09T03:57:12.671Z,24.980778600000004
2024-05-09T03:58:13.229Z,25.0711833
2024-05-09T03:59:13.751Z,25.122843100000004
2024-05-09T04:00:17.713Z,25.129300100000002
2024-05-09T04:01:14.862Z,25.1519003
2024-05-09T04:02:15.413Z,25.2132476
2024-05-09T04:03:16.114Z,25.213246199999993
2024-05-09T04:04:16.437Z,25.221318099999998
2024-05-09T04:05:16.990Z,25.284277399999997
2024-05-09T04:06:17.518Z,25.227773199999994
2024-05-09T04:07:18.049Z,25.2067876
2024-05-09T04:08:18.621Z,25.219702599999998
2024-05-09T04:09:19.690Z,25.180958100000005
2024-05-09T04:10:23.956Z,25.1422138
2024-05-09T04:11:20.301Z,25.103469100000005
2024-05-09T04:12:20.836Z,25.0727949
2024-05-09T04:13:21.331Z,25.1276854
2024-05-09T04:14:21.880Z,25.124456700000003
2024-05-09T04:15:25.111Z,25.048582600000007
2024-05-09T04:17:23.954Z,24.9371919
2024-05-09T04:18:24.162Z,24.861316
2024-05-09T04:19:24.694Z,24.8451722
2024-05-09T04:20:31.916Z,24.8790735
2024-05-09T04:21:25.653Z,24.914589399999997
2024-05-09T04:22:26.194Z,24.904903
2024-05-09T04:23:26.947Z,24.8177265
2024-05-09T04:24:27.274Z,24.7515381
2024-05-09T04:25:27.847Z,24.748309299999995
2024-05-09T04:26:28.443Z,24.8031963
2024-05-09T04:27:28.932Z,24.8274109
2024-05-09T04:28:29.460Z,24.861311300000004
2024-05-09T04:29:30.113Z,24.900054400000002
2024-05-09T04:30:39.576Z,24.935569800000003
2024-05-09T04:31:38.539Z,24.980771599999997
2024-05-09T04:33:32.914Z,25.116381500000003
2024-05-09T04:34:34.319Z,25.243916300000002
2024-05-09T04:36:37.685Z,25.3698374
2024-05-09T04:37:41.943Z,25.4021234
2024-05-09T04:39:48.240Z,25.3698369
2024-05-09T04:42:04.867Z,25.4134275
2024-05-09T04:43:37.854Z,25.335932000000003
2024-05-09T04:44:40.521Z,25.298799900000006
2024-05-09T04:46:39.218Z,25.2245383
2024-05-09T04:47:40.860Z,25.169651800000004
2024-05-09T04:48:41.250Z,25.145437700000002
2024-05-09T04:50:43.836Z,25.1857963
2024-05-09T04:51:46.767Z,25.1567365
2024-05-09T04:53:46.632Z,25.151895099999997
2024-05-09T04:55:44.282Z,25.134138299999996
2024-05-09T04:56:44.697Z,25.159966
2024-05-09T04:57:45.687Z,25.2116235
2024-05-09T05:00:49.052Z,25.255210999999996
2024-05-09T05:02:02.229Z,25.289113699999998
2024-05-09T05:03:48.678Z,25.235837
2024-05-09T05:04:49.118Z,25.243909400000003
2024-05-09T05:05:49.852Z,25.293954400000008
2024-05-09T05:06:50.206Z,25.3698314
2024-05-09T05:07:50.646Z,25.423105800000002
2024-05-09T05:08:51.162Z,25.3859773
2024-05-09T05:09:51.710Z,25.3391632
2024-05-09T05:10:52.306Z,25.279432900000003
2024-05-09T05:11:52.947Z,25.208401000000002
2024-05-09T05:12:53.429Z,25.2423043
2024-05-09T05:13:53.933Z,25.2245482
2024-05-09T05:14:54.417Z,25.2197048
2024-05-09T05:15:55.578Z,25.174503
2024-05-09T05:16:55.566Z,25.087326100000002
2024-05-09T05:19:02.881Z,25.056651600000002
2024-05-09T05:20:57.697Z,25.0953953
2024-05-09T05:21:58.456Z,25.1066952
2024-05-09T05:23:03.763Z,25.1712692
2024-05-09T05:24:05.771Z,25.134138800000002
2024-05-09T05:26:00.410Z,25.071179500000003
2024-05-09T05:27:01.324Z,25.025977300000005
2024-05-09T05:28:01.509Z,25.0049916
2024-05-09T05:29:02.066Z,24.967863
2024-05-09T05:30:02.782Z,24.9162043
2024-05-09T05:31:03.790Z,24.925890600000002
2024-05-09T05:33:04.246Z,24.929117700000003
2024-05-09T05:34:04.772Z,24.9145878
2024-05-09T05:35:05.415Z,24.937187700000003
2024-05-09T05:36:21.974Z,24.9646304
2024-05-09T05:38:26.031Z,25.0356601
2024-05-09T05:40:12.060Z,25.116374599999997
2024-05-09T05:42:15.958Z,25.2196937
2024-05-09T05:44:10.842Z,25.247136800000003
2024-05-09T05:45:11.860Z,25.274582
2024-05-09T05:46:28.807Z,25.305258000000002
2024-05-09T05:48:12.388Z,25.313329000000003
2024-05-09T05:49:13.092Z,25.342389000000004
2024-05-09T05:50:17.972Z,25.3827506
2024-05-09T05:51:17.678Z,25.311718900000002
2024-05-09T05:53:15.751Z,25.329477100000002
2024-05-09T05:54:15.587Z,25.311717800000004
2024-05-09T05:55:17.522Z,25.295572600000003
2024-05-09T05:57:17.285Z,25.3181733
2024-05-09T05:58:18.082Z,25.3359326
2024-05-09T05:59:20.257Z,25.3488489
2024-05-09T06:00:25.697Z,25.316559700000006
2024-05-09T06:01:23.603Z,25.361760500000003
2024-05-09T06:03:21.573Z,25.323016000000003
2024-05-09T06:04:22.507Z,25.319788700000004
2024-05-09T06:06:22.086Z,25.366606499999996
2024-05-09T06:07:22.620Z,25.381135999999998
2024-05-09T06:08:24.134Z,25.415038899999995
2024-05-09T06:09:23.810Z,25.3843637
2024-05-09T06:10:25.974Z,25.3779058
2024-05-09T06:11:24.890Z,25.4069654
2024-05-09T06:12:25.470Z,25.4796136
2024-05-09T06:13:25.922Z,25.4941433
2024-05-09T06:14:26.985Z,25.507057699999997
2024-05-09T06:15:26.992Z,25.476385
2024-05-09T06:16:27.521Z,25.427955100000002
2024-05-09T06:17:28.218Z,25.382750300000005
2024-05-09T06:18:28.726Z,25.316560200000005
2024-05-09T06:19:29.224Z,25.306875600000005
2024-05-09T06:20:34.490Z,25.3440087
2024-05-09T06:21:30.246Z,25.326249600000004
2024-05-09T06:22:30.782Z,25.316562300000005
2024-05-09T06:23:31.594Z,25.350466500000003
2024-05-09T06:24:31.876Z,25.3649966
2024-05-09T06:25:32.475Z,25.366609700000005
2024-05-09T06:26:32.978Z,25.3956667
2024-05-09T06:27:33.484Z,25.3875953
2024-05-09T06:28:34.273Z,25.4021232
2024-05-09T06:29:34.678Z,25.4424816
2024-05-09T06:30:38.299Z,25.4457103
2024-05-09T06:31:35.686Z,25.4053513
2024-05-09T06:32:36.372Z,25.4069662
2024-05-09T06:33:37.250Z,25.4085806
2024-05-09T06:35:38.005Z,25.379520600000003
2024-05-09T06:36:38.365Z,25.319790300000005
2024-05-09T06:37:38.929Z,25.3327063
2024-05-09T06:38:39.594Z,25.356922700000002
2024-05-09T06:39:39.997Z,25.3601517
2024-05-09T06:40:41.804Z,25.3375497
2024-05-09T06:41:41.149Z,25.293959100000002
2024-05-09T06:42:41.625Z,25.324631500000002
2024-05-09T06:43:42.168Z,25.347232400000003
2024-05-09T06:44:42.709Z,25.3343166
2024-05-09T06:46:44.260Z,25.392436099999998
2024-05-09T06:47:46.010Z,25.503827699999995
2024-05-09T06:48:50.044Z,25.528042899999996
2024-05-09T06:49:50.743Z,25.5167407
2024-05-09T06:51:47.408Z,25.5248137
2024-05-09T06:53:50.393Z,25.5716333
2024-05-09T06:54:52.497Z,25.611994099999997
2024-05-09T06:56:52.597Z,25.5732482
2024-05-09T06:58:51.303Z,25.440866500000006
2024-05-09T07:00:51.476Z,25.4989856
2024-05-09T07:01:52.845Z,25.510286799999996
2024-05-09T07:02:54.710Z,25.5441903
2024-05-09T07:04:54.741Z,25.503828600000002
2024-05-09T07:05:58.833Z,25.4650813
2024-05-09T07:07:04.858Z,25.4699247
2024-05-09T07:08:56.019Z,25.4457105
2024-05-09T07:09:57.715Z,25.4360247
2024-05-09T07:11:03.921Z,25.387592700000003
2024-05-09T07:13:00.042Z,25.4376387
2024-05-09T07:15:01.506Z,25.4408687
2024-05-09T07:17:00.169Z,25.371451500000003
2024-05-09T07:18:00.735Z,25.339165300000005
2024-05-09T07:19:01.285Z,25.3585366
2024-05-09T07:20:01.803Z,25.3472354
2024-05-09T07:21:02.283Z,25.3440064
2024-05-09T07:22:02.792Z,25.3084894
2024-05-09T07:23:03.412Z,25.297189099999997
2024-05-09T07:24:03.880Z,25.308489
2024-05-09T07:25:04.813Z,25.3343205
2024-05-09T07:26:05.010Z,25.387597700000004
2024-05-09T07:27:05.514Z,25.5215899
2024-05-09T07:28:06.067Z,25.6249082
2024-05-09T07:29:06.653Z,25.687870599999997
2024-05-09T07:30:07.299Z,25.710472899999996
2024-05-09T07:31:07.689Z,25.6927138
2024-05-09T07:32:08.231Z,25.679797999999995
2024-05-09T07:33:08.958Z,25.636208
2024-05-09T07:34:09.359Z,25.616835700000003
2024-05-09T07:35:09.852Z,25.6136067
2024-05-09T07:36:10.399Z,25.623292399999997
2024-05-09T07:37:10.942Z,25.540958699999997
2024-05-09T07:38:11.497Z,25.4747688
2024-05-09T07:39:12.020Z,25.4440938
2024-05-09T07:40:17.649Z,25.429564500000005
2024-05-09T07:41:13.144Z,25.426336600000003
2024-05-09T07:42:13.663Z,25.431179399999998
2024-05-09T07:43:14.793Z,25.4570101
2024-05-09T07:44:14.766Z,25.4892973
2024-05-09T07:45:29.471Z,25.4892963
2024-05-09T07:49:12.023Z,25.444093000000002
2024-05-09T07:53:14.084Z,25.5797064
2024-05-09T07:54:20.284Z,25.487686800000002
2024-05-09T07:55:20.885Z,25.494145800000005
2024-05-09T07:56:22.276Z,25.5022188
2024-05-09T07:57:21.796Z,25.591010200000007
2024-05-09T07:58:22.380Z,25.6620445
2024-05-09T07:59:22.863Z,25.6814166
2024-05-09T08:00:27.129Z,25.705631200000006
2024-05-09T08:01:24.019Z,25.737918
2024-05-09T08:02:24.762Z,25.7863482
2024-05-09T08:03:25.178Z,25.833164300000004
2024-05-09T08:04:26.713Z,25.944555400000002
2024-05-09T08:05:26.221Z,25.9542416
2024-05-09T08:06:26.857Z,25.9090373
2024-05-09T08:07:27.217Z,25.828317500000004
2024-05-09T08:08:27.770Z,25.762126000000002
2024-05-09T08:09:28.336Z,25.692706400000002
2024-05-09T08:10:29.570Z,25.665262600000005
2024-05-09T08:12:29.947Z,25.516740900000002
2024-05-09T08:13:30.474Z,25.421492400000005
2024-05-09T08:14:31.026Z,25.295573300000004
2024-05-09T08:15:32.069Z,25.311715300000007
2024-05-09T08:16:32.107Z,25.408576900000003
2024-05-09T08:17:32.775Z,25.482839000000002
2024-05-09T08:18:33.426Z,25.5780881
2024-05-09T08:19:33.764Z,25.616835599999995
2024-05-09T08:20:35.150Z,25.624907399999994
2024-05-09T08:21:34.847Z,25.623292900000003
2024-05-09T08:22:35.352Z,25.6733388
2024-05-09T08:23:35.898Z,25.7249998
2024-05-09T08:24:36.458Z,25.771814999999997
2024-05-09T08:25:36.985Z,25.728227299999997
2024-05-09T08:26:37.525Z,25.644281999999997
2024-05-09T08:27:38.147Z,25.531277600000003
2024-05-09T08:28:38.611Z,25.405357600000002
2024-05-09T08:29:39.228Z,25.3714541
2024-05-09T08:30:39.815Z,25.292348800000003
2024-05-09T08:31:40.273Z,25.2164732
2024-05-09T08:32:40.842Z,25.1841846
2024-05-09T08:33:41.441Z,25.100237999999997
2024-05-09T08:34:41.897Z,25.0550363
2024-05-09T08:35:42.431Z,25.114768199999997
2024-05-09T08:36:42.964Z,25.1954849
2024-05-09T08:37:43.594Z,25.3278612
2024-05-09T08:38:44.042Z,25.408580800000003
2024-05-09T08:39:45.390Z,25.437640700000003
2024-05-09T08:41:45.662Z,25.573249600000004
2024-05-09T08:42:46.215Z,25.578092200000004
2024-05-09T08:43:46.749Z,25.620063500000004
2024-05-09T08:44:48.106Z,25.6200636
2024-05-09T08:46:49.814Z,25.392438500000004
2024-05-09T08:48:49.954Z,25.2988051
2024-05-09T08:49:50.030Z,25.302034300000003
2024-05-09T08:50:50.612Z,25.3488504
2024-05-09T08:51:51.116Z,25.306876600000002
2024-05-09T08:52:52.157Z,25.226160200000002
2024-05-09T08:53:52.203Z,25.227774500000002
2024-05-09T08:54:52.805Z,25.298807400000005
2024-05-09T08:55:53.259Z,25.303649800000002
2024-05-09T08:56:53.869Z,25.285892
2024-05-09T08:57:54.373Z,25.205174300000003
2024-05-09T08:58:54.902Z,25.135756300000004
2024-05-09T08:59:55.562Z,25.079251600000003
2024-05-09T09:00:56.047Z,25.003374400000006
2024-05-09T09:01:56.590Z,25.011444899999997
2024-05-09T09:02:57.081Z,25.043732499999997
2024-05-09T09:03:57.704Z,25.0082183
2024-05-09T09:04:58.258Z,24.9565567
2024-05-09T09:05:58.704Z,24.964629100000003
2024-05-09T09:07:00.283Z,25.006603300000002
2024-05-09T09:07:59.771Z,25.077635300000004
2024-05-09T09:09:00.317Z,25.114763700000005
2024-05-09T09:10:00.885Z,25.159967
2024-05-09T09:11:01.412Z,25.138982500000004
2024-05-09T09:12:02.058Z,25.076023600000003
2024-05-09T09:13:02.541Z,25.077637900000003
2024-05-09T09:14:03.039Z,25.0857093
2024-05-09T09:15:03.572Z,25.061495200000003
2024-05-09T09:16:04.258Z,25.001764200000004
2024-05-09T09:17:04.679Z,24.900059399999996
2024-05-09T09:18:05.977Z,24.8564707
2024-05-09T09:19:05.815Z,24.872615499999995
2024-05-09T09:20:11.219Z,24.8936037
2024-05-09T09:21:06.837Z,24.927503899999998
2024-05-09T09:22:07.504Z,25.0372816
2024-05-09T09:23:07.921Z,25.129301199999997
2024-05-09T09:24:09.837Z,25.1502868
2024-05-09T09:25:09.016Z,25.1825723
2024-05-09T09:26:10.247Z,25.2568312
2024-05-09T09:28:10.732Z,25.2487605
2024-05-09T09:29:11.191Z,25.195487000000004
2024-05-09T09:30:18.439Z,25.1728849
2024-05-09T09:31:12.286Z,25.1357552
2024-05-09T09:32:12.804Z,25.0598786
2024-05-09T09:33:13.475Z,24.984002200000003
2024-05-09T09:34:19.092Z,25.034049800000002
2024-05-09T09:36:27.419Z,25.042122799999998
2024-05-09T09:38:17.832Z,25.2148587
2024-05-09T09:39:18.786Z,25.248759900000003
2024-05-09T09:41:19.145Z,25.203556100000004
2024-05-09T09:43:21.125Z,25.235841
2024-05-09T09:45:24.479Z,25.190638800000002
2024-05-09T09:47:38.193Z,25.163192099999996
2024-05-09T09:49:24.387Z,25.0711745
2024-05-09T09:51:29.653Z,25.111531900000003
2024-05-09T09:52:36.818Z,25.103460800000004
2024-05-09T09:54:26.837Z,25.077631400000005
2024-05-09T09:56:27.579Z,25.082474400000002
2024-05-09T09:58:30.383Z,25.053416700000003
2024-05-09T10:00:32.764Z,25.080862700000004
2024-05-09T10:02:29.298Z,25.016290200000004
2024-05-09T10:03:30.287Z,25.0146757
2024-05-09T10:04:31.400Z,25.0388898
2024-05-09T10:05:47.830Z,25.0049887
2024-05-09T10:08:33.432Z,25.027589099999997
2024-05-09T10:10:33.606Z,25.0388898
2024-05-09T10:11:39.713Z,24.988844999999998
2024-05-09T10:12:34.736Z,24.993687400000002
2024-05-09T10:13:36.879Z,25.024359300000004
2024-05-09T10:14:38.189Z,24.993688000000002
2024-05-09T10:16:45.377Z,24.921045300000003
2024-05-09T10:18:39.086Z,24.9404178
2024-05-09T10:20:38.856Z,24.904900000000005
2024-05-09T10:21:39.420Z,25.001762100000004
2024-05-09T10:22:39.956Z,25.066337600000004
2024-05-09T10:23:40.483Z,25.076023300000003
2024-05-09T10:24:41.055Z,25.080866200000003
2024-05-09T10:25:41.587Z,25.1050804
2024-05-09T10:26:42.135Z,25.108309000000002
2024-05-09T10:27:42.663Z,25.109923400000003
2024-05-09T10:28:43.248Z,25.0711788
2024-05-09T10:29:43.756Z,25.0792503
2024-05-09T10:30:45.269Z,25.1680409
2024-05-09T10:31:45.000Z,25.106693800000002
2024-05-09T10:32:45.461Z,25.105079300000007
2024-05-09T10:33:46.088Z,25.1325235
2024-05-09T10:34:46.465Z,25.1712667
2024-05-09T10:35:46.999Z,25.153509199999995
2024-05-09T10:36:47.546Z,25.090548499999997
2024-05-09T10:37:48.533Z,25.0049879
2024-05-09T10:38:48.688Z,24.993688300000002
2024-05-09T10:39:49.237Z,24.9484885
2024-05-09T10:40:49.737Z,24.8661555
2024-05-09T10:41:50.270Z,24.8144967
2024-05-09T10:42:50.902Z,24.6821189
2024-05-09T10:43:51.553Z,24.5691146
2024-05-09T10:44:51.894Z,24.4448101
2024-05-09T10:45:52.475Z,24.33019
2024-05-09T10:46:53.066Z,24.294673700000004
2024-05-09T10:47:53.641Z,24.257542900000004
2024-05-09T10:48:54.156Z,24.196196800000003
2024-05-09T10:49:54.653Z,24.1219354
2024-05-09T10:50:55.147Z,24.026687700000004
2024-05-09T10:51:55.763Z,23.9491975
2024-05-09T10:52:56.922Z,23.8700921
2024-05-09T10:54:57.328Z,23.6553765
2024-05-09T10:55:57.881Z,23.605329900000005
2024-05-09T10:56:58.400Z,23.502007000000003
2024-05-09T10:57:58.954Z,23.327654000000003
2024-05-09T10:58:59.884Z,23.1823584
2024-05-09T11:00:01.396Z,23.1048677
2024-05-09T11:02:01.170Z,22.891765099999997
2024-05-09T11:03:01.686Z,22.7932882
2024-05-09T11:04:02.380Z,22.748086
2024-05-09T11:05:02.871Z,22.670595900000002
2024-05-09T11:06:03.618Z,22.5575905
2024-05-09T11:07:05.242Z,22.4865603
2024-05-09T11:08:04.366Z,22.438128900000002
2024-05-09T11:09:04.938Z,22.3251237
2024-05-09T11:10:07.489Z,22.147542500000004
2024-05-09T11:11:05.993Z,21.997409299999998
2024-05-09T11:12:06.603Z,21.8908627
2024-05-09T11:13:07.143Z,21.8343599
2024-05-09T11:14:07.636Z,21.7601002
2024-05-09T11:15:08.724Z,21.701984099999997
2024-05-09T11:16:08.748Z,21.6277236
2024-05-09T11:17:09.307Z,21.4840464
2024-05-09T11:18:09.897Z,21.440459299999997
2024-05-09T11:19:10.401Z,21.374271699999998
2024-05-09T11:20:16.655Z,21.364586799999998
2024-05-09T11:21:11.471Z,21.3339144
2024-05-09T11:22:11.987Z,21.188622699999996
2024-05-09T11:23:12.520Z,21.0804615
2024-05-09T11:24:13.080Z,21.011044599999998
2024-05-09T11:25:13.746Z,20.8915819
2024-05-09T11:26:14.154Z,20.7688913
2024-05-09T11:27:14.758Z,20.6946301
2024-05-09T11:28:15.274Z,20.6284413
2024-05-09T11:29:17.881Z,20.599382499999997
2024-05-09T11:30:20.936Z,20.507364
2024-05-09T11:31:17.051Z,20.4960632
2024-05-09T11:32:17.440Z,20.536422499999997
2024-05-09T11:33:18.008Z,20.5105933
2024-05-09T11:34:18.518Z,20.404045599999996
2024-05-09T11:35:19.033Z,20.3297856
2024-05-09T11:36:19.572Z,20.313641300000004
2024-05-09T11:37:20.188Z,20.3653015
2024-05-09T11:38:20.658Z,20.3507728
2024-05-09T11:39:21.211Z,20.2409966
2024-05-09T11:40:24.980Z,20.0989303
2024-05-09T11:41:22.288Z,19.8809887